Time;durP1;ratioP1;P1;durP2;ratioP2;P2;SDS_P1;SDS_P2;PMS_P1;PMS_P2;Temp;Humidity;BMP_temperature;BMP_pressure;BME280_temperature;BME280_humidity;BME280_pressure;Samples;Min_cycle;Max_cycle;Signal;HPM_P1;HPM_P2
2023/09/11 00:00:52;;;;;;;9.80;8.40;;;;;;;;;;107747;296;42226;-37
2023/09/11 00:03:45;;;;;;;9.10;8.10;;;;;;;;;;107752;296;38683;-37
2023/09/11 00:06:19;;;;;;;10.00;8.30;;;;;;;;;;107732;296;40529;-37
2023/09/11 00:08:54;;;;;;;10.30;8.60;;;;;;;;;;107755;296;42988;-36
2023/09/11 00:11:28;;;;;;;10.00;8.20;;;;;;;;;;107706;296;42203;-35
2023/09/11 00:14:01;;;;;;;9.50;8.40;;;;;;;;;;107765;297;39959;-34
2023/09/11 00:16:39;;;;;;;10.10;8.10;;;;;;;;;;107749;297;39650;-34
2023/09/11 00:19:26;;;;;;;10.70;8.10;;;;;;;;;;107774;297;44252;-34
2023/09/11 00:22:05;;;;;;;9.50;8.50;;;;;;;;;;107608;297;42102;-34
2023/09/11 00:24:39;;;;;;;9.70;8.50;;;;;;;;;;107776;297;38722;-35
2023/09/11 00:27:12;;;;;;;10.60;8.50;;;;;;;;;;107742;298;39556;-35
2023/09/11 00:29:46;;;;;;;10.10;8.20;;;;;;;;;;107729;297;42792;-34
2023/09/11 00:32:19;;;;;;;9.70;8.30;;;;;;;;;;107707;297;42050;-34
2023/09/11 00:34:55;;;;;;;9.50;8.50;;;;;;;;;;107712;297;39875;-34
2023/09/11 00:37:33;;;;;;;10.80;9.00;;;;;;;;;;107724;297;39367;-34
2023/09/11 00:40:11;;;;;;;9.80;8.40;;;;;;;;;;107712;303;42794;-34
2023/09/11 00:42:44;;;;;;;9.20;8.30;;;;;;;;;;107702;297;42622;-34
2023/09/11 00:45:18;;;;;;;11.20;8.80;;;;;;;;;;107734;297;39978;-34
2023/09/11 00:47:51;;;;;;;10.30;8.80;;;;;;;;;;107756;297;39727;-34
2023/09/11 00:50:27;;;;;;;11.00;8.90;;;;;;;;;;107750;297;43888;-34
2023/09/11 00:53:01;;;;;;;11.00;8.90;;;;;;;;;;107742;297;42363;-34
2023/09/11 00:55:35;;;;;;;10.10;8.40;;;;;;;;;;107741;297;38692;-34
2023/09/11 00:58:12;;;;;;;9.10;8.10;;;;;;;;;;107737;297;39734;-34
2023/09/11 01:00:47;;;;;;;10.10;8.30;;;;;;;;;;107757;297;42841;-34
2023/09/11 01:03:24;;;;;;;10.00;8.50;;;;;;;;;;107750;298;42057;-34
2023/09/11 01:06:04;;;;;;;9.50;8.40;;;;;;;;;;107784;298;38836;-34
2023/09/11 01:08:40;;;;;;;9.50;8.40;;;;;;;;;;107762;297;39669;-34
2023/09/11 01:11:28;;;;;;;9.70;8.60;;;;;;;;;;107746;297;43069;-34
2023/09/11 01:14:02;;;;;;;10.20;8.40;;;;;;;;;;107730;297;47882;-34
2023/09/11 01:17:01;;;;;;;10.80;8.80;;;;;;;;;;107739;297;38716;-34
2023/09/11 01:20:35;;;;;;;10.00;8.50;;;;;;;;;;107764;297;39598;-34
2023/09/11 01:23:47;;;;;;;10.50;8.80;;;;;;;;;;107754;297;44071;-34
2023/09/11 01:27:20;;;;;;;10.20;8.70;;;;;;;;;;107602;297;175489;-34
2023/09/11 01:29:55;;;;;;;10.30;8.70;;;;;;;;;;107566;298;38783;-34
2023/09/11 01:32:30;;;;;;;9.50;8.50;;;;;;;;;;107706;297;41163;-34
2023/09/11 01:35:19;;;;;;;10.70;9.20;;;;;;;;;;107750;297;43096;-34
2023/09/11 01:38:10;;;;;;;9.90;8.40;;;;;;;;;;107749;297;44250;-34
2023/09/11 01:41:03;;;;;;;9.90;8.60;;;;;;;;;;107766;297;38955;-34
2023/09/11 01:43:39;;;;;;;9.60;8.60;;;;;;;;;;107728;298;39726;-34
2023/09/11 01:46:27;;;;;;;11.00;8.80;;;;;;;;;;107745;297;42672;-34
2023/09/11 01:49:15;;;;;;;9.60;8.60;;;;;;;;;;107710;297;42278;-34
2023/09/11 01:51:53;;;;;;;9.10;8.20;;;;;;;;;;107733;297;38748;-34
2023/09/11 01:54:28;;;;;;;8.90;7.90;;;;;;;;;;107725;298;40802;-34
2023/09/11 01:57:03;;;;;;;10.70;8.80;;;;;;;;;;107746;297;42808;-34
2023/09/11 01:59:41;;;;;;;9.80;8.80;;;;;;;;;;107061;297;891801;-34
2023/09/11 02:02:15;;;;;;;9.70;8.60;;;;;;;;;;107768;297;38675;-34
2023/09/11 02:04:49;;;;;;;10.80;8.70;;;;;;;;;;107680;297;39797;-34
2023/09/11 02:07:28;;;;;;;10.00;8.50;;;;;;;;;;107656;297;175450;-34
2023/09/11 02:10:03;;;;;;;10.00;8.60;;;;;;;;;;107736;297;42714;-34
2023/09/11 02:12:38;;;;;;;9.50;8.50;;;;;;;;;;107760;301;38897;-34
2023/09/11 02:15:18;;;;;;;10.20;8.60;;;;;;;;;;107862;296;45267;-34
2023/09/11 02:18:04;;;;;;;11.30;8.70;;;;;;;;;;107760;296;42792;-34
2023/09/11 02:20:47;;;;;;;10.70;8.90;;;;;;;;;;107735;296;42060;-34
2023/09/11 02:23:28;;;;;;;9.50;8.50;;;;;;;;;;107722;296;38946;-34
2023/09/11 02:26:10;;;;;;;9.40;8.40;;;;;;;;;;107821;296;39662;-34
2023/09/11 02:28:51;;;;;;;9.60;8.60;;;;;;;;;;107753;296;42862;-34
2023/09/11 02:31:24;;;;;;;9.50;8.50;;;;;;;;;;107748;296;42275;-34
2023/09/11 02:33:58;;;;;;;9.60;8.70;;;;;;;;;;107735;296;38489;-34
2023/09/11 02:36:31;;;;;;;10.00;8.60;;;;;;;;;;107744;296;39780;-34
2023/09/11 02:39:29;;;;;;;10.80;8.60;;;;;;;;;;107787;296;42896;-35
2023/09/11 02:42:06;;;;;;;11.20;8.80;;;;;;;;;;107755;296;42178;-35
2023/09/11 02:44:53;;;;;;;9.60;8.60;;;;;;;;;;107750;296;40148;-34
2023/09/11 02:47:27;;;;;;;10.30;8.40;;;;;;;;;;107760;296;39597;-35
2023/09/11 02:50:04;;;;;;;10.30;8.30;;;;;;;;;;107802;296;43100;-34
2023/09/11 02:52:37;;;;;;;9.60;8.50;;;;;;;;;;107800;296;42045;-34
2023/09/11 02:55:18;;;;;;;9.60;8.30;;;;;;;;;;107690;296;38666;-34
2023/09/11 02:57:55;;;;;;;9.50;8.50;;;;;;;;;;107731;296;39660;-34
2023/09/11 03:00:29;;;;;;;9.40;8.10;;;;;;;;;;107732;296;42984;-34
2023/09/11 03:03:05;;;;;;;9.70;8.50;;;;;;;;;;107732;297;43165;-34
2023/09/11 03:05:42;;;;;;;9.80;8.60;;;;;;;;;;107744;297;38665;-34
2023/09/11 03:08:16;;;;;;;9.40;8.40;;;;;;;;;;107745;296;39630;-34
2023/09/11 03:10:49;;;;;;;9.20;8.20;;;;;;;;;;107739;296;43983;-34
2023/09/11 03:13:28;;;;;;;10.00;8.40;;;;;;;;;;107631;296;175486;-34
2023/09/11 03:16:15;;;;;;;9.30;8.40;;;;;;;;;;107716;296;38800;-34
2023/09/11 03:18:50;;;;;;;9.00;7.90;;;;;;;;;;107715;296;38667;-35
2023/09/11 03:21:24;;;;;;;9.50;8.30;;;;;;;;;;107784;296;42993;-34
2023/09/11 03:24:02;;;;;;;10.70;8.70;;;;;;;;;;107725;296;42192;-34
2023/09/11 03:26:36;;;;;;;9.30;8.30;;;;;;;;;;107727;296;39986;-35
2023/09/11 03:29:11;;;;;;;9.90;8.80;;;;;;;;;;107747;296;39353;-35
2023/09/11 03:31:45;;;;;;;10.00;8.50;;;;;;;;;;107724;297;42544;-35
2023/09/11 03:34:18;;;;;;;10.20;8.50;;;;;;;;;;107697;296;43476;-34
2023/09/11 03:36:53;;;;;;;9.80;8.30;;;;;;;;;;107850;296;38906;-34
2023/09/11 03:39:35;;;;;;;10.40;8.70;;;;;;;;;;107741;296;39618;-35
2023/09/11 03:42:13;;;;;;;10.40;8.70;;;;;;;;;;107744;296;42813;-35
2023/09/11 03:45:01;;;;;;;10.50;8.70;;;;;;;;;;107754;296;41932;-35
2023/09/11 03:47:51;;;;;;;10.00;9.00;;;;;;;;;;107725;296;38713;-35
2023/09/11 03:50:25;;;;;;;10.30;8.80;;;;;;;;;;107704;296;39529;-35
2023/09/11 03:53:01;;;;;;;9.80;8.60;;;;;;;;;;107717;296;42999;-35
2023/09/11 03:55:41;;;;;;;10.20;8.70;;;;;;;;;;107697;296;42157;-33
2023/09/11 03:58:15;;;;;;;9.80;8.70;;;;;;;;;;107794;296;38587;-35
2023/09/11 04:00:49;;;;;;;10.00;9.00;;;;;;;;;;107729;296;39757;-35
2023/09/11 04:03:27;;;;;;;10.10;8.90;;;;;;;;;;107712;296;42570;-35
2023/09/11 04:06:03;;;;;;;10.70;8.60;;;;;;;;;;107732;296;42190;-34
2023/09/11 04:08:40;;;;;;;10.00;8.80;;;;;;;;;;107761;296;38587;-33
2023/09/11 04:11:18;;;;;;;11.00;9.10;;;;;;;;;;107754;296;39753;-34
2023/09/11 04:13:51;;;;;;;9.90;8.70;;;;;;;;;;107755;296;42517;-34
2023/09/11 04:16:25;;;;;;;10.20;9.00;;;;;;;;;;107760;296;41943;-35
2023/09/11 04:19:01;;;;;;;10.90;9.40;;;;;;;;;;107740;296;38506;-35
2023/09/11 04:21:35;;;;;;;9.70;8.70;;;;;;;;;;107761;296;40735;-35
2023/09/11 04:24:12;;;;;;;10.30;9.00;;;;;;;;;;107749;296;42678;-35
2023/09/11 04:26:47;;;;;;;9.80;8.80;;;;;;;;;;107695;296;41831;-35
2023/09/11 04:29:22;;;;;;;9.70;8.70;;;;;;;;;;107756;296;38555;-34
2023/09/11 04:31:56;;;;;;;10.80;9.00;;;;;;;;;;107747;296;40152;-35
2023/09/11 04:34:31;;;;;;;9.90;8.90;;;;;;;;;;107745;297;42801;-33
2023/09/11 04:37:18;;;;;;;10.10;9.00;;;;;;;;;;107737;296;41973;-33
2023/09/11 04:39:51;;;;;;;10.50;9.10;;;;;;;;;;107752;296;39063;-33
2023/09/11 04:42:33;;;;;;;9.90;8.60;;;;;;;;;;107753;296;40640;-33
2023/09/11 04:45:13;;;;;;;10.00;9.00;;;;;;;;;;107728;296;42778;-35
2023/09/11 04:47:51;;;;;;;11.00;8.90;;;;;;;;;;107678;296;42139;-35
2023/09/11 04:50:30;;;;;;;10.40;9.40;;;;;;;;;;107734;296;38651;-34
2023/09/11 04:53:03;;;;;;;10.20;8.90;;;;;;;;;;107758;296;39379;-35
2023/09/11 04:55:38;;;;;;;10.40;8.90;;;;;;;;;;107731;296;43677;-35
2023/09/11 04:58:17;;;;;;;10.00;8.80;;;;;;;;;;107749;296;41834;-34
2023/09/11 05:00:52;;;;;;;10.10;9.00;;;;;;;;;;107776;296;40059;-35
2023/09/11 05:03:26;;;;;;;10.60;9.20;;;;;;;;;;107753;296;39541;-35
2023/09/11 05:06:01;;;;;;;10.10;9.00;;;;;;;;;;107749;296;42985;-35
2023/09/11 05:08:36;;;;;;;11.10;9.30;;;;;;;;;;107465;296;331256;-35
2023/09/11 05:11:29;;;;;;;10.00;8.80;;;;;;;;;;107766;301;39808;-35
2023/09/11 05:14:18;;;;;;;9.90;8.90;;;;;;;;;;107753;297;39843;-35
2023/09/11 05:16:52;;;;;;;11.10;9.00;;;;;;;;;;107744;297;42784;-35
2023/09/11 05:19:26;;;;;;;10.20;9.20;;;;;;;;;;107769;297;41804;-35
2023/09/11 05:22:06;;;;;;;10.20;9.10;;;;;;;;;;107751;297;38726;-33
2023/09/11 05:24:40;;;;;;;;;;;;;;;;;;107745;298;39546;-33
2023/09/11 05:27:14;;;;;;;;;;;;;;;;;;107742;297;43782;-35
2023/09/11 05:30:01;;;;;;;11.10;9.60;;;;;;;;;;107737;297;41761;-35
2023/09/11 05:32:36;;;;;;;11.00;8.90;;;;;;;;;;107750;297;38679;-35
2023/09/11 05:35:14;;;;;;;11.40;9.30;;;;;;;;;;107631;302;39622;-35
2023/09/11 05:37:47;;;;;;;10.50;9.10;;;;;;;;;;107705;298;42536;-34
2023/09/11 05:40:38;;;;;;;12.00;9.50;;;;;;;;;;107746;297;42177;-33
2023/09/11 05:43:11;;;;;;;10.60;9.50;;;;;;;;;;107549;299;175473;-33
2023/09/11 05:45:45;;;;;;;10.10;9.10;;;;;;;;;;107747;302;39385;-33
2023/09/11 05:48:21;;;;;;;10.30;9.20;;;;;;;;;;107707;297;44111;-33
2023/09/11 05:50:57;;;;;;;10.80;9.60;;;;;;;;;;107754;297;42028;-33
2023/09/11 05:53:46;;;;;;;11.40;9.60;;;;;;;;;;107724;297;39259;-33
2023/09/11 05:56:20;;;;;;;11.50;9.70;;;;;;;;;;107775;298;39360;-34
2023/09/11 05:58:54;;;;;;;10.60;9.50;;;;;;;;;;107691;297;42553;-34
2023/09/11 06:01:27;;;;;;;10.50;9.40;;;;;;;;;;107746;297;41984;-33
2023/09/11 06:04:01;;;;;;;12.70;9.90;;;;;;;;;;107760;297;38791;-34
2023/09/11 06:06:37;;;;;;;19.50;11.10;;;;;;;;;;107769;297;39347;-34
2023/09/11 06:09:10;;;;;;;21.10;12.00;;;;;;;;;;107723;297;42500;-34
2023/09/11 06:11:45;;;;;;;20.90;11.50;;;;;;;;;;107768;297;42065;-33
2023/09/11 06:14:36;;;;;;;19.30;11.70;;;;;;;;;;107739;296;38897;-34
2023/09/11 06:17:11;;;;;;;18.30;11.60;;;;;;;;;;107768;296;39505;-34
2023/09/11 06:19:44;;;;;;;17.90;11.50;;;;;;;;;;107764;296;43775;-34
2023/09/11 06:22:20;;;;;;;16.40;11.00;;;;;;;;;;107728;297;42324;-34
2023/09/11 06:24:59;;;;;;;17.70;11.40;;;;;;;;;;107772;296;39769;-34
2023/09/11 06:27:34;;;;;;;15.10;11.00;;;;;;;;;;107772;296;39521;-33
2023/09/11 06:30:22;;;;;;;17.60;11.10;;;;;;;;;;107755;296;48570;-33
2023/09/11 06:32:58;;;;;;;17.90;11.50;;;;;;;;;;107751;296;41815;-34
2023/09/11 06:35:36;;;;;;;17.50;10.90;;;;;;;;;;107758;301;38719;-33
2023/09/11 06:38:16;;;;;;;15.60;10.70;;;;;;;;;;107780;296;39389;-34
2023/09/11 06:40:56;;;;;;;17.00;11.20;;;;;;;;;;107795;296;48740;-34
2023/09/11 06:43:29;;;;;;;13.90;10.90;;;;;;;;;;107776;296;42079;-34
2023/09/11 06:46:03;;;;;;;14.10;11.10;;;;;;;;;;107785;296;38659;-34
2023/09/11 06:48:37;;;;;;;16.40;10.70;;;;;;;;;;107755;296;39539;-34
2023/09/11 06:51:11;;;;;;;15.40;11.20;;;;;;;;;;107771;296;48103;-34
2023/09/11 06:53:45;;;;;;;17.40;10.80;;;;;;;;;;107697;298;42054;-34
2023/09/11 06:56:21;;;;;;;14.10;10.70;;;;;;;;;;107769;296;38716;-34
2023/09/11 06:59:08;;;;;;;14.50;10.40;;;;;;;;;;107724;294;39815;-34
2023/09/11 07:01:42;;;;;;;13.90;10.80;;;;;;;;;;107764;296;42793;-36
2023/09/11 07:04:19;;;;;;;13.00;10.60;;;;;;;;;;107676;289;42115;-35
2023/09/11 07:06:56;;;;;;;13.10;10.10;;;;;;;;;;107768;296;38501;-33
2023/09/11 07:09:32;;;;;;;15.40;11.00;;;;;;;;;;107693;289;39512;-33
2023/09/11 07:12:08;;;;;;;12.60;10.60;;;;;;;;;;107737;289;42545;-33
2023/09/11 07:15:00;;;;;;;13.30;10.70;;;;;;;;;;107755;296;41999;-33
2023/09/11 07:17:44;;;;;;;14.00;10.70;;;;;;;;;;107723;296;38525;-34
2023/09/11 07:20:25;;;;;;;14.30;10.90;;;;;;;;;;107715;296;39372;-34
2023/09/11 07:23:06;;;;;;;12.60;10.40;;;;;;;;;;107768;289;42673;-36
2023/09/11 07:25:48;;;;;;;13.30;10.50;;;;;;;;;;107750;293;43253;-33
2023/09/11 07:28:30;;;;;;;11.90;10.40;;;;;;;;;;107104;296;890509;-35
2023/09/11 07:31:07;;;;;;;13.40;10.60;;;;;;;;;;107596;296;175070;-36
2023/09/11 07:33:46;;;;;;;11.70;10.40;;;;;;;;;;107100;296;892291;-34
2023/09/11 07:36:31;;;;;;;11.50;10.10;;;;;;;;;;107728;293;42053;-33
2023/09/11 07:39:08;;;;;;;12.00;10.20;;;;;;;;;;107704;298;38725;-35
2023/09/11 07:41:47;;;;;;;11.30;9.90;;;;;;;;;;107644;297;41897;-35
2023/09/11 07:44:26;;;;;;;11.50;10.30;;;;;;;;;;107729;293;43198;-35
2023/09/11 07:47:04;;;;;;;10.90;9.80;;;;;;;;;;107744;296;42233;-35
2023/09/11 07:49:44;;;;;;;12.60;10.60;;;;;;;;;;107746;296;38522;-35
2023/09/11 07:52:23;;;;;;;11.50;10.20;;;;;;;;;;107737;296;46675;-34
2023/09/11 07:55:02;;;;;;;12.60;10.20;;;;;;;;;;107734;296;43024;-34
2023/09/11 07:57:41;;;;;;;11.90;9.70;;;;;;;;;;107729;289;43248;-34
2023/09/11 08:00:30;;;;;;;12.20;9.80;;;;;;;;;;107726;296;38545;-33
2023/09/11 08:03:13;;;;;;;12.20;10.50;;;;;;;;;;107742;296;45754;-33
2023/09/11 08:06:01;;;;;;;11.40;9.90;;;;;;;;;;107727;293;42962;-34
2023/09/11 08:08:34;;;;;;;12.10;10.50;;;;;;;;;;107715;296;42308;-34
2023/09/11 08:11:22;;;;;;;11.30;10.00;;;;;;;;;;107692;296;38663;-34
2023/09/11 08:14:05;;;;;;;10.90;9.70;;;;;;;;;;107748;297;39607;-35
2023/09/11 08:16:46;;;;;;;10.90;9.90;;;;;;;;;;107663;297;43902;-35
2023/09/11 08:19:21;;;;;;;11.90;9.90;;;;;;;;;;107728;297;42494;-34
2023/09/11 08:21:55;;;;;;;11.90;10.20;;;;;;;;;;107675;297;38687;-33
2023/09/11 08:24:29;;;;;;;10.90;9.80;;;;;;;;;;107741;297;39784;-34
2023/09/11 08:27:06;;;;;;;10.80;9.50;;;;;;;;;;107767;297;42809;-33
2023/09/11 08:29:43;;;;;;;10.70;9.60;;;;;;;;;;107654;295;43347;-33
2023/09/11 08:32:20;;;;;;;11.10;10.00;;;;;;;;;;107701;297;38485;-34
2023/09/11 08:35:09;;;;;;;11.80;9.50;;;;;;;;;;107740;297;39840;-34
2023/09/11 08:37:47;;;;;;;11.60;9.70;;;;;;;;;;107692;291;42680;-35
2023/09/11 08:40:40;;;;;;;11.40;9.70;;;;;;;;;;107745;293;42135;-34
2023/09/11 08:43:17;;;;;;;11.60;10.10;;;;;;;;;;107715;293;39979;-34
2023/09/11 08:46:02;;;;;;;11.00;9.70;;;;;;;;;;107762;297;40695;-35
2023/09/11 08:48:46;;;;;;;10.90;9.60;;;;;;;;;;107719;297;42826;-35
2023/09/11 08:51:44;;;;;;;10.70;9.60;;;;;;;;;;107718;297;42044;-35
2023/09/11 08:54:42;;;;;;;10.70;9.60;;;;;;;;;;107670;298;46619;-35
2023/09/11 08:57:34;;;;;;;10.60;9.50;;;;;;;;;;107738;289;39412;-34
2023/09/11 09:00:14;;;;;;;11.30;9.90;;;;;;;;;;107767;297;42681;-35
2023/09/11 09:02:49;;;;;;;11.80;10.00;;;;;;;;;;107687;297;43180;-35
2023/09/11 09:05:32;;;;;;;11.50;9.70;;;;;;;;;;107786;297;38722;-35
2023/09/11 09:08:22;;;;;;;10.90;9.60;;;;;;;;;;107732;293;39449;-34
2023/09/11 09:10:59;;;;;;;10.20;9.10;;;;;;;;;;107756;289;42818;-35
2023/09/11 09:13:38;;;;;;;10.80;9.30;;;;;;;;;;107713;296;43178;-35
2023/09/11 09:16:13;;;;;;;11.10;10.00;;;;;;;;;;107753;289;38527;-34
2023/09/11 09:18:51;;;;;;;10.80;9.10;;;;;;;;;;107721;296;40719;-35
2023/09/11 09:21:29;;;;;;;10.70;9.40;;;;;;;;;;107760;296;42759;-35
2023/09/11 09:24:20;;;;;;;10.70;9.50;;;;;;;;;;107659;290;43150;-35
2023/09/11 09:27:07;;;;;;;10.10;9.10;;;;;;;;;;107771;296;38492;-35
2023/09/11 09:29:44;;;;;;;10.50;9.30;;;;;;;;;;107794;296;41082;-35
2023/09/11 09:32:20;;;;;;;10.60;9.50;;;;;;;;;;107761;296;42579;-35
2023/09/11 09:34:56;;;;;;;9.90;8.90;;;;;;;;;;106952;296;895100;-35
2023/09/11 09:37:30;;;;;;;10.40;9.30;;;;;;;;;;107775;296;39170;-35
2023/09/11 09:40:04;;;;;;;10.80;9.70;;;;;;;;;;107749;293;40907;-35
2023/09/11 09:42:44;;;;;;;10.70;9.60;;;;;;;;;;107766;293;42590;-35
2023/09/11 09:45:35;;;;;;;11.20;10.00;;;;;;;;;;107727;296;41837;-35
2023/09/11 09:48:21;;;;;;;10.20;9.10;;;;;;;;;;107743;296;38471;-35
2023/09/11 09:50:59;;;;;;;10.70;9.60;;;;;;;;;;107770;288;39446;-34
2023/09/11 09:53:46;;;;;;;11.40;9.50;;;;;;;;;;107768;296;42815;-34
2023/09/11 09:56:24;;;;;;;10.70;9.60;;;;;;;;;;107689;294;42160;-35
2023/09/11 09:59:01;;;;;;;10.70;9.50;;;;;;;;;;107769;296;38944;-36
2023/09/11 10:01:47;;;;;;;11.30;9.70;;;;;;;;;;107750;296;39362;-35
2023/09/11 10:04:22;;;;;;;11.00;9.80;;;;;;;;;;107727;296;42812;-35
2023/09/11 10:06:59;;;;;;;10.80;9.80;;;;;;;;;;107690;290;42480;-35
2023/09/11 10:09:34;;;;;;;10.70;9.60;;;;;;;;;;107749;296;38666;-35
2023/09/11 10:12:16;;;;;;;10.60;9.50;;;;;;;;;;107765;288;39371;-35
2023/09/11 10:14:50;;;;;;;10.40;9.30;;;;;;;;;;107724;296;42605;-34
2023/09/11 10:17:25;;;;;;;10.20;9.10;;;;;;;;;;107754;289;41845;-35
2023/09/11 10:20:05;;;;;;;10.90;9.80;;;;;;;;;;107786;297;38769;-33
2023/09/11 10:22:39;;;;;;;10.50;9.40;;;;;;;;;;107780;288;39817;-36
2023/09/11 10:25:13;;;;;;;11.20;9.50;;;;;;;;;;107695;296;42578;-36
2023/09/11 10:27:50;;;;;;;10.50;9.40;;;;;;;;;;107646;296;175210;-36
2023/09/11 10:30:29;;;;;;;10.30;9.30;;;;;;;;;;107767;293;38797;-36
2023/09/11 10:33:12;;;;;;;10.80;9.20;;;;;;;;;;107762;296;39322;-36
2023/09/11 10:35:49;;;;;;;10.70;9.60;;;;;;;;;;107702;296;42764;-35
2023/09/11 10:38:23;;;;;;;10.60;9.50;;;;;;;;;;107764;296;42031;-35
2023/09/11 10:40:57;;;;;;;10.30;9.20;;;;;;;;;;107752;296;40265;-35
2023/09/11 10:43:37;;;;;;;10.70;9.50;;;;;;;;;;107769;296;39661;-35
2023/09/11 10:46:38;;;;;;;11.50;9.60;;;;;;;;;;107730;296;42517;-35
2023/09/11 10:49:20;;;;;;;11.10;9.50;;;;;;;;;;107705;288;42027;-36
2023/09/11 10:51:55;;;;;;;10.60;9.40;;;;;;;;;;107786;288;38531;-35
2023/09/11 10:54:34;;;;;;;10.50;9.50;;;;;;;;;;107724;296;39571;-35
2023/09/11 10:57:11;;;;;;;10.70;9.60;;;;;;;;;;107739;288;50425;-35
2023/09/11 10:59:48;;;;;;;10.20;9.20;;;;;;;;;;107740;296;43365;-35
2023/09/11 11:02:27;;;;;;;10.20;9.20;;;;;;;;;;107772;296;38490;-36
2023/09/11 11:05:08;;;;;;;10.10;9.10;;;;;;;;;;107756;288;40759;-36
2023/09/11 11:07:43;;;;;;;10.00;9.00;;;;;;;;;;107741;289;42559;-36
2023/09/11 11:10:25;;;;;;;9.60;8.70;;;;;;;;;;107656;297;42173;-36
2023/09/11 11:13:12;;;;;;;9.80;8.90;;;;;;;;;;107752;296;39234;-36
2023/09/11 11:15:51;;;;;;;9.90;8.90;;;;;;;;;;107701;289;41062;-36
2023/09/11 11:18:31;;;;;;;;;;;;;;;;;;107772;288;42793;-37
2023/09/11 11:21:11;;;;;;;12.80;9.70;;;;;;;;;;107758;296;41443;-36
2023/09/11 11:24:04;;;;;;;10.10;9.10;;;;;;;;;;107813;289;38642;-36
2023/09/11 11:26:46;;;;;;;9.90;9.00;;;;;;;;;;107705;289;40970;-36
2023/09/11 11:29:21;;;;;;;9.80;8.80;;;;;;;;;;107768;288;42933;-37
2023/09/11 11:32:00;;;;;;;11.00;9.90;;;;;;;;;;107755;296;41930;-36
2023/09/11 11:34:43;;;;;;;10.50;9.50;;;;;;;;;;107801;288;38515;-36
2023/09/11 11:37:21;;;;;;;10.60;9.60;;;;;;;;;;107771;293;39321;-35
2023/09/11 11:40:00;;;;;;;11.00;9.90;;;;;;;;;;107695;296;175470;-35
2023/09/11 11:42:38;;;;;;;11.00;10.00;;;;;;;;;;107761;292;42055;-37
2023/09/11 11:45:19;;;;;;;10.90;9.90;;;;;;;;;;107694;297;38503;-36
2023/09/11 11:47:54;;;;;;;10.40;9.40;;;;;;;;;;107706;288;39786;-36
2023/09/11 11:50:31;;;;;;;11.00;9.90;;;;;;;;;;107788;289;42828;-37
2023/09/11 11:53:09;;;;;;;10.90;9.80;;;;;;;;;;107080;296;911228;-36
2023/09/11 11:55:43;;;;;;;10.90;9.90;;;;;;;;;;107785;292;38907;-37
2023/09/11 11:58:19;;;;;;;10.90;9.80;;;;;;;;;;107743;295;45600;-37
2023/09/11 12:01:05;;;;;;;10.70;9.70;;;;;;;;;;107718;296;42911;-36
2023/09/11 12:03:50;;;;;;;10.10;9.10;;;;;;;;;;107752;296;42496;-37
2023/09/11 12:06:25;;;;;;;11.10;10.00;;;;;;;;;;107768;293;38657;-37
2023/09/11 12:09:05;;;;;;;10.30;2.90;;;;;;;;;;107781;288;39528;-37
2023/09/11 12:11:45;;;;;;;10.50;9.40;;;;;;;;;;107722;293;42817;-36
2023/09/11 12:14:23;;;;;;;10.40;9.40;;;;;;;;;;107753;288;42041;-37
2023/09/11 12:17:08;;;;;;;10.60;9.30;;;;;;;;;;107761;296;38849;-35
2023/09/11 12:19:47;;;;;;;10.70;9.70;;;;;;;;;;107749;296;39827;-37
2023/09/11 12:22:24;;;;;;;11.20;10.10;;;;;;;;;;107728;296;43276;-37
2023/09/11 12:25:02;;;;;;;11.20;10.20;;;;;;;;;;107813;288;42393;-36
2023/09/11 12:27:38;;;;;;;10.80;9.70;;;;;;;;;;107727;288;38498;-37
2023/09/11 12:30:19;;;;;;;11.00;9.90;;;;;;;;;;107700;296;40034;-36
2023/09/11 12:33:01;;;;;;;11.20;10.10;;;;;;;;;;107758;288;44143;-37
2023/09/11 12:35:37;;;;;;;10.90;9.80;;;;;;;;;;107723;296;42192;-36
2023/09/11 12:38:15;;;;;;;11.10;10.10;;;;;;;;;;107713;292;38684;-36
2023/09/11 12:40:49;;;;;;;10.90;9.90;;;;;;;;;;107762;289;39641;-36
2023/09/11 12:43:29;;;;;;;11.00;10.00;;;;;;;;;;107712;289;42994;-37
2023/09/11 12:46:09;;;;;;;11.30;10.20;;;;;;;;;;107751;296;42218;-36
2023/09/11 12:48:46;;;;;;;11.20;10.10;;;;;;;;;;107756;292;38887;-36
2023/09/11 12:51:23;;;;;;;9.50;8.30;;;;;;;;;;107784;296;39645;-37
2023/09/11 12:53:58;;;;;;;10.90;9.90;;;;;;;;;;107770;296;42693;-37
2023/09/11 12:56:37;;;;;;;11.40;10.30;;;;;;;;;;107727;296;43328;-36
2023/09/11 12:59:12;;;;;;;10.80;9.80;;;;;;;;;;107683;289;38693;-36
2023/09/11 13:01:47;;;;;;;10.80;9.80;;;;;;;;;;107770;289;39308;-36
2023/09/11 13:04:30;;;;;;;11.20;10.10;;;;;;;;;;107754;288;42690;-37
2023/09/11 13:07:10;;;;;;;11.30;10.20;;;;;;;;;;107748;296;41985;-36
2023/09/11 13:09:46;;;;;;;10.50;9.50;;;;;;;;;;107513;292;322777;-37
2023/09/11 13:12:27;;;;;;;9.80;8.90;;;;;;;;;;107786;296;39574;-36
2023/09/11 13:15:05;;;;;;;9.90;9.00;;;;;;;;;;107716;296;42872;-36
2023/09/11 13:17:51;;;;;;;10.60;9.60;;;;;;;;;;107743;292;42206;-36
2023/09/11 13:20:28;;;;;;;10.40;9.40;;;;;;;;;;107780;296;39792;-36
2023/09/11 13:23:10;;;;;;;9.70;8.80;;;;;;;;;;107743;293;39972;-36
2023/09/11 13:25:45;;;;;;;10.30;9.30;;;;;;;;;;107708;296;43883;-35
2023/09/11 13:28:29;;;;;;;10.20;9.20;;;;;;;;;;107699;292;42359;-35
2023/09/11 13:31:06;;;;;;;9.70;8.70;;;;;;;;;;107717;296;38483;-35
2023/09/11 13:33:46;;;;;;;9.90;8.90;;;;;;;;;;107734;293;39372;-35
2023/09/11 13:36:31;;;;;;;10.10;9.10;;;;;;;;;;107736;296;44183;-36
2023/09/11 13:39:15;;;;;;;9.80;8.80;;;;;;;;;;107673;294;42456;-35
2023/09/11 13:41:54;;;;;;;9.90;8.90;;;;;;;;;;107741;292;39969;-35
2023/09/11 13:44:36;;;;;;;9.70;8.80;;;;;;;;;;107788;292;40555;-35
2023/09/11 13:47:13;;;;;;;10.20;9.20;;;;;;;;;;107748;296;43996;-35
2023/09/11 13:49:53;;;;;;;9.90;9.00;;;;;;;;;;107751;296;43258;-35
2023/09/11 13:52:40;;;;;;;10.30;9.30;;;;;;;;;;107763;292;38861;-35
2023/09/11 13:55:21;;;;;;;9.70;8.70;;;;;;;;;;107762;292;39642;-36
2023/09/11 13:57:57;;;;;;;10.10;9.20;;;;;;;;;;107735;296;42770;-36
2023/09/11 14:00:32;;;;;;;9.50;8.60;;;;;;;;;;107770;296;41998;-36
2023/09/11 14:03:06;;;;;;;10.10;9.10;;;;;;;;;;107735;289;38444;-36
2023/09/11 14:05:40;;;;;;;9.90;9.00;;;;;;;;;;107806;288;39817;-36
2023/09/11 14:08:26;;;;;;;10.20;9.30;;;;;;;;;;107793;289;42737;-37
2023/09/11 14:11:01;;;;;;;10.50;9.50;;;;;;;;;;107712;289;48241;-36
2023/09/11 14:13:37;;;;;;;9.80;8.90;;;;;;;;;;107775;296;41072;-37
2023/09/11 14:16:11;;;;;;;10.90;9.80;;;;;;;;;;107759;288;39533;-36
2023/09/11 14:18:47;;;;;;;10.70;9.70;;;;;;;;;;107739;296;42567;-36
2023/09/11 14:21:21;;;;;;;11.10;10.10;;;;;;;;;;107694;296;47918;-36
2023/09/11 14:23:57;;;;;;;11.60;10.50;;;;;;;;;;107775;292;38636;-35
2023/09/11 14:26:36;;;;;;;12.40;11.20;;;;;;;;;;107622;292;192719;-36
2023/09/11 14:29:16;;;;;;;12.00;10.90;;;;;;;;;;107719;296;43136;-37
2023/09/11 14:31:53;;;;;;;11.80;10.70;;;;;;;;;;107769;296;48313;-36
2023/09/11 14:34:28;;;;;;;11.80;10.60;;;;;;;;;;107748;296;38713;-36
2023/09/11 14:37:03;;;;;;;12.00;10.90;;;;;;;;;;107746;289;41172;-36
2023/09/11 14:40:11;;;;;;;12.30;11.20;;;;;;;;;;107721;292;42516;-36
2023/09/11 14:42:51;;;;;;;12.20;11.10;;;;;;;;;;107709;296;43882;-35
2023/09/11 14:45:25;;;;;;;12.70;11.50;;;;;;;;;;107742;288;39020;-37
2023/09/11 14:48:02;;;;;;;13.90;12.60;;;;;;;;;;107747;292;39568;-36
2023/09/11 14:50:35;;;;;;;13.00;11.80;;;;;;;;;;107751;296;44102;-36
2023/09/11 14:53:15;;;;;;;12.10;11.00;;;;;;;;;;107747;293;43172;-37
2023/09/11 14:55:48;;;;;;;11.50;10.50;;;;;;;;;;107632;289;175373;-36
2023/09/11 14:58:23;;;;;;;11.00;10.00;;;;;;;;;;107729;294;40943;-36
2023/09/11 15:00:57;;;;;;;11.70;10.70;;;;;;;;;;107725;288;42945;-35
2023/09/11 15:03:32;;;;;;;11.10;10.10;;;;;;;;;;107733;293;42324;-35
2023/09/11 15:06:13;;;;;;;10.90;9.90;;;;;;;;;;107760;296;39879;-35
2023/09/11 15:08:51;;;;;;;11.10;10.10;;;;;;;;;;107756;296;41840;-35
2023/09/11 15:11:27;;;;;;;10.90;9.80;;;;;;;;;;107565;297;196684;-35
2023/09/11 15:14:06;;;;;;;10.50;9.60;;;;;;;;;;107614;293;175361;-35
2023/09/11 15:16:40;;;;;;;10.60;9.60;;;;;;;;;;107741;289;38853;-35
2023/09/11 15:19:18;;;;;;;10.70;9.70;;;;;;;;;;107718;293;39389;-35
2023/09/11 15:21:54;;;;;;;11.00;10.00;;;;;;;;;;107665;293;42747;-35
2023/09/11 15:24:28;;;;;;;10.70;9.70;;;;;;;;;;107736;296;42139;-35
2023/09/11 15:27:05;;;;;;;10.40;9.30;;;;;;;;;;107645;289;38789;-35
2023/09/11 15:29:44;;;;;;;10.10;9.10;;;;;;;;;;107719;297;40707;-35
2023/09/11 15:32:19;;;;;;;10.20;9.20;;;;;;;;;;107718;297;42773;-36
2023/09/11 15:34:56;;;;;;;10.10;9.10;;;;;;;;;;107689;297;41820;-36
2023/09/11 15:37:32;;;;;;;9.90;9.00;;;;;;;;;;107555;298;38514;-36
2023/09/11 15:40:13;;;;;;;10.40;9.40;;;;;;;;;;107709;298;39294;-36